Biggs Army Air Field (Fort Bliss)
KBIF : now visible

Airfield :











YOU CAN JOIN US ON...

 
LOGIN :

Register | Disclaimer

   EN    FR    IT 

 









Legend :    VFR   Marginal VFR   IFR   Intensive IFR   Very Intensive IFR
Visi :
Ceiling :
>= 8 km
>= 3000ft
5 to 8 km
1000 to 3000 ft
1500m to 5 km
500 to 1000 ft
800 to 1500m
200 to 500 ft
< 800m
< 200 ft
Symbols :   Thunderstorms  Fog  Heavy snow  Heavy precipitations  Wind > 20 kt






- Airport Elevation : 3946 ft


KBIF - Biggs Army Air Field (Fort Bliss)

CURRENT METAR :
  • 141558Z AUTO 00000KT 10SM CLR 08/01 A3028 RMK AO2 SLP236 T00780008

EXPIRED METARs :
  • 141358Z AUTO 04004KT 9SM CLR 00/M04 A3023 RMK AO2 SLP224 T10051044

TAF TAF KBIF
Valid from the 14 at 14:00 until the 15 at 20:00 UTC


141404Z 1414/1520 10009KT 9999 SKC QNH3020INS
BECMG 1417/1418 10010G15KT 9999 SKC QNH3022INS
BECMG 1502/1503 10009KT 9999 SKC QNH3024INS TX16/1423Z TNM01/1513Z



MET'MAP, your aeronautical weather chart ! - Copyright ORBIFLY December 2007 - Disclaimer

ORBIFLY MET'MAP TEAM :

Programming & Development : Alexandra Zaïnal
Concept & Development : Baudouin d'Aumeries
Co-Development & Prog : Marc-Olivier Méhu
Technical & hardware support : Manuel Goepfert

Contact : metmap@orbifly.com




SOURCES & CREDITS :

   NOAA       Earth
Advisory